createdAt,value
2023-03-02T00:00:01.665Z,-4.16
2023-03-02T00:01:01.736Z,-4.32
2023-03-02T00:02:01.842Z,-4.08
2023-03-02T00:03:01.994Z,-4.08
2023-03-02T00:04:02.088Z,-3.92
2023-03-02T00:05:02.193Z,-3.68
2023-03-02T00:06:02.340Z,-3.52
2023-03-02T00:07:02.437Z,-3.52
2023-03-02T00:08:02.538Z,-3.44
2023-03-02T00:09:02.694Z,-3.12
2023-03-02T00:10:02.796Z,-2.88
2023-03-02T00:11:02.891Z,-2.88
2023-03-02T00:12:03.008Z,-2.88
2023-03-02T00:13:03.099Z,-2.72
2023-03-02T00:14:03.205Z,-2.64
2023-03-02T00:15:03.304Z,-2.8
2023-03-02T00:16:03.490Z,-3.04
2023-03-02T00:17:03.555Z,-3.68
2023-03-02T00:18:03.704Z,-4.08
2023-03-02T00:19:03.809Z,-4.08
2023-03-02T00:20:03.910Z,-4.16
2023-03-02T00:21:04.092Z,-4.32
2023-03-02T00:22:04.235Z,-3.92
2023-03-02T00:23:04.369Z,-4.08
2023-03-02T00:24:04.514Z,-4
2023-03-02T00:25:04.619Z,-4
2023-03-02T00:26:04.777Z,-3.84
2023-03-02T00:27:04.870Z,-3.52
2023-03-02T00:28:05.022Z,-3.68
2023-03-02T00:29:05.126Z,-3.6
2023-03-02T00:30:05.220Z,-3.92
2023-03-02T00:31:05.408Z,-3.92
2023-03-02T00:32:05.432Z,-3.84
2023-03-02T00:33:05.578Z,-3.68
2023-03-02T00:34:05.673Z,-3.52
2023-03-02T00:35:05.830Z,-3.6
2023-03-02T00:36:06.001Z,-3.84
2023-03-02T00:37:06.128Z,-4
2023-03-02T00:38:06.232Z,-4.08
2023-03-02T00:39:06.344Z,-3.68
2023-03-02T00:40:06.452Z,-3.92
2023-03-02T00:41:06.564Z,-4
2023-03-02T00:42:06.688Z,-4
2023-03-02T00:43:06.799Z,-4.08
2023-03-02T00:44:06.889Z,-4.08
2023-03-02T00:45:06.990Z,-4.4
2023-03-02T00:46:07.105Z,-4.16
2023-03-02T00:47:07.333Z,-4.08
2023-03-02T00:48:07.399Z,-3.68
2023-03-02T00:49:07.502Z,-3.28
2023-03-02T00:50:07.601Z,-3.28
2023-03-02T00:51:07.698Z,-3.44
2023-03-02T00:52:07.853Z,-3.28
2023-03-02T00:53:07.951Z,-3.28
2023-03-02T00:54:08.052Z,-3.52
2023-03-02T00:55:08.154Z,-3.68
2023-03-02T00:56:08.259Z,-4
2023-03-02T00:57:08.359Z,-4
2023-03-02T00:58:08.510Z,-4
2023-03-02T00:59:08.606Z,-3.84
2023-03-02T01:00:08.713Z,-3.68
2023-03-02T01:01:08.864Z,-3.52
2023-03-02T01:02:08.982Z,-3.52
2023-03-02T01:03:09.192Z,-3.84
2023-03-02T01:04:09.227Z,-3.84
2023-03-02T01:05:09.333Z,-3.44
2023-03-02T01:06:09.471Z,-3.2
2023-03-02T01:07:09.575Z,-3.04
2023-03-02T01:08:09.673Z,-3.68
2023-03-02T01:09:09.785Z,-4.32
2023-03-02T01:10:09.890Z,-4.16
2023-03-02T01:11:09.994Z,-3.84
2023-03-02T01:12:10.081Z,-3.44
2023-03-02T01:13:10.186Z,-3.12
2023-03-02T01:14:10.301Z,-3.52
2023-03-02T01:15:10.390Z,-3.68
2023-03-02T01:16:10.540Z,-3.84
2023-03-02T01:17:10.591Z,-3.68
2023-03-02T01:18:12.107Z,-3.84
2023-03-02T01:19:10.795Z,-3.68
2023-03-02T01:20:10.907Z,-4.16
2023-03-02T01:21:10.996Z,-4.4
2023-03-02T01:22:11.148Z,-4.72
2023-03-02T01:23:11.253Z,-5.2
2023-03-02T01:24:11.353Z,-4.8
2023-03-02T01:25:11.460Z,-5.04
2023-03-02T01:26:11.559Z,-4.88
2023-03-02T01:27:11.660Z,-5.12
2023-03-02T01:28:11.768Z,-4.88
2023-03-02T01:29:11.861Z,-4.08
2023-03-02T01:30:12.010Z,-4
2023-03-02T01:31:12.179Z,-4.32
2023-03-02T01:32:12.263Z,-4.4
2023-03-02T01:33:12.318Z,-4.48
2023-03-02T01:34:12.417Z,-4.4
2023-03-02T01:35:12.526Z,-4.32
2023-03-02T01:36:12.624Z,-4.72
2023-03-02T01:37:12.723Z,-4.64
2023-03-02T01:38:12.845Z,-4.32
2023-03-02T01:39:12.926Z,-4.32
2023-03-02T01:40:13.189Z,-4.48
2023-03-02T01:41:13.183Z,-4.4
2023-03-02T01:42:13.282Z,-4.4
2023-03-02T01:43:13.385Z,-4.8
2023-03-02T01:44:13.486Z,-5.2
2023-03-02T01:45:13.630Z,-5.12
2023-03-02T01:46:13.786Z,-5.28
2023-03-02T01:47:13.833Z,-5.04
2023-03-02T01:48:13.938Z,-4.88
2023-03-02T01:49:14.085Z,-5.04
2023-03-02T01:50:14.238Z,-4.88
2023-03-02T01:51:14.343Z,-5.12
2023-03-02T01:52:14.442Z,-5.44
2023-03-02T01:53:14.541Z,-5.04
2023-03-02T01:54:14.655Z,-4.8
2023-03-02T01:55:14.747Z,-4.88
2023-03-02T01:56:14.896Z,-4.88
2023-03-02T01:57:15.005Z,-4.8
2023-03-02T01:58:15.103Z,-4.88
2023-03-02T01:59:15.251Z,-4.88
2023-03-02T02:00:15.402Z,-4.72
2023-03-02T02:01:15.758Z,-4.8
2023-03-02T02:02:15.657Z,-4.8
2023-03-02T02:03:15.809Z,-4.8
2023-03-02T02:04:15.981Z,-4.88
2023-03-02T02:05:16.011Z,-4.72
2023-03-02T02:06:16.122Z,-4.72
2023-03-02T02:07:16.211Z,-5.04
2023-03-02T02:08:16.313Z,-4.64
2023-03-02T02:09:16.430Z,-4.72
2023-03-02T02:10:16.531Z,-4.8
2023-03-02T02:11:16.672Z,-5.04
2023-03-02T02:12:16.777Z,-5.04
2023-03-02T02:13:16.871Z,-4.88
2023-03-02T02:14:17.004Z,-4.72
2023-03-02T02:15:17.155Z,-4.72
2023-03-02T02:16:17.288Z,-4.48
2023-03-02T02:17:17.381Z,-4.64
2023-03-02T02:18:17.478Z,-4.72
2023-03-02T02:19:17.629Z,-4.72
2023-03-02T02:20:17.726Z,-4.64
2023-03-02T02:21:17.830Z,-4.88
2023-03-02T02:22:17.980Z,-4.8
2023-03-02T02:23:18.134Z,-5.2
2023-03-02T02:24:18.288Z,-5.12
2023-03-02T02:25:18.395Z,-4.8
2023-03-02T02:26:18.644Z,-4.88
2023-03-02T02:27:18.638Z,-4.88
2023-03-02T02:28:18.751Z,-4.8
2023-03-02T02:29:18.897Z,-4.8
2023-03-02T02:30:18.996Z,-4.72
2023-03-02T02:31:19.136Z,-4.8
2023-03-02T02:32:19.353Z,-4.88
2023-03-02T02:33:19.352Z,-4.72
2023-03-02T02:34:19.500Z,-4.64
2023-03-02T02:35:19.651Z,-4.64
2023-03-02T02:36:19.701Z,-4.64
2023-03-02T02:37:19.804Z,-4.72
2023-03-02T02:38:19.908Z,-4.72
2023-03-02T02:39:20.006Z,-4.8
2023-03-02T02:40:20.112Z,-4.8
2023-03-02T02:41:20.222Z,-4.72
2023-03-02T02:42:20.310Z,-4.64
2023-03-02T02:43:20.419Z,-4.72
2023-03-02T02:44:20.517Z,-4.48
2023-03-02T02:45:20.667Z,-4.72
2023-03-02T02:46:20.889Z,-4.72
2023-03-02T02:47:20.923Z,-4.88
2023-03-02T02:48:21.027Z,-5.6
2023-03-02T02:49:21.123Z,-5.68
2023-03-02T02:50:21.270Z,-5.52
2023-03-02T02:51:21.375Z,-5.28
2023-03-02T02:52:21.479Z,-5.12
2023-03-02T02:53:21.585Z,-4.88
2023-03-02T02:54:21.736Z,-4.88
2023-03-02T02:55:21.827Z,-4.8
2023-03-02T02:56:21.981Z,-4.8
2023-03-02T02:57:22.085Z,-4.8
2023-03-02T02:58:22.186Z,-4.64
2023-03-02T02:59:22.279Z,-4.8
2023-03-02T03:00:22.436Z,-4.8
2023-03-02T03:01:22.646Z,-4.72
2023-03-02T03:02:22.686Z,-4.72
2023-03-02T03:03:22.788Z,-4.72
2023-03-02T03:04:22.975Z,-4.64
2023-03-02T03:05:23.048Z,-4.32
2023-03-02T03:06:23.141Z,-4.48
2023-03-02T03:07:23.248Z,-4.48
2023-03-02T03:08:23.401Z,-4.48
2023-03-02T03:09:23.521Z,-4.64
2023-03-02T03:10:23.603Z,-4.48
2023-03-02T03:11:23.700Z,-4.16
2023-03-02T03:12:23.803Z,-4.8
2023-03-02T03:13:23.960Z,-4.32
2023-03-02T03:14:24.058Z,-4.48
2023-03-02T03:15:24.207Z,-4.4
2023-03-02T03:16:24.338Z,-4.4
2023-03-02T03:17:24.406Z,-4.48
2023-03-02T03:18:24.574Z,-4.72
2023-03-02T03:19:24.715Z,-4.88
2023-03-02T03:20:24.866Z,-4.72
2023-03-02T03:21:24.962Z,-4.8
2023-03-02T03:22:25.063Z,-4.8
2023-03-02T03:23:25.163Z,-4.88
2023-03-02T03:24:25.265Z,-4.88
2023-03-02T03:25:25.414Z,-4.8
2023-03-02T03:26:25.517Z,-4.8
2023-03-02T03:27:25.618Z,-4.72
2023-03-02T03:28:25.721Z,-4.64
2023-03-02T03:29:25.818Z,-4.72
2023-03-02T03:30:25.967Z,-4.8
2023-03-02T03:31:26.072Z,-4.8
2023-03-02T03:32:26.256Z,-4.88
2023-03-02T03:33:26.327Z,-4.64
2023-03-02T03:34:26.436Z,-4.64
2023-03-02T03:35:26.550Z,-4.72
2023-03-02T03:36:26.683Z,-4.64
2023-03-02T03:37:26.780Z,-4.72
2023-03-02T03:38:26.927Z,-4.4
2023-03-02T03:39:27.046Z,-4.64
2023-03-02T03:40:27.181Z,-4.72
2023-03-02T03:41:27.342Z,-4.8
2023-03-02T03:42:27.442Z,-4.8
2023-03-02T03:43:27.586Z,-4.48
2023-03-02T03:44:27.687Z,-4.48
2023-03-02T03:45:30.039Z,-4.64
2023-03-02T03:46:28.030Z,-4.64
2023-03-02T03:47:28.093Z,-4.32
2023-03-02T03:48:28.193Z,-4.4
2023-03-02T03:49:28.312Z,-4.48
2023-03-02T03:50:28.404Z,-4.4
2023-03-02T03:51:28.503Z,-4.64
2023-03-02T03:52:28.601Z,-4.8
2023-03-02T03:53:28.751Z,-4.88
2023-03-02T03:54:28.865Z,-5.04
2023-03-02T03:55:29.015Z,-5.04
2023-03-02T03:56:29.159Z,-5.04
2023-03-02T03:57:29.286Z,-5.04
2023-03-02T03:58:29.434Z,-5.04
2023-03-02T03:59:29.561Z,-5.04
2023-03-02T04:00:29.659Z,-5.04
2023-03-02T04:01:29.773Z,-5.12
2023-03-02T04:02:29.904Z,-5.12
2023-03-02T04:03:29.989Z,-5.04
2023-03-02T04:04:30.132Z,-4.88
2023-03-02T04:05:31.643Z,-5.12
2023-03-02T04:06:30.551Z,-4.88
2023-03-02T04:07:30.469Z,-4.8
2023-03-02T04:08:30.623Z,-4
2023-03-02T04:09:30.770Z,-4.4
2023-03-02T04:10:30.877Z,-4.48
2023-03-02T04:11:31.019Z,-4.48
2023-03-02T04:12:31.176Z,-5.04
2023-03-02T04:13:31.280Z,-4.8
2023-03-02T04:14:31.441Z,-4.8
2023-03-02T04:15:31.579Z,-4.88
2023-03-02T04:16:32.026Z,-4.88
2023-03-02T04:17:31.779Z,-4.88
2023-03-02T04:18:31.890Z,-4.8
2023-03-02T04:19:32.037Z,-4.64
2023-03-02T04:20:32.136Z,-5.52
2023-03-02T04:21:32.250Z,-5.44
2023-03-02T04:22:32.390Z,-5.52
2023-03-02T04:23:32.536Z,-5.28
2023-03-02T04:24:32.646Z,-5.04
2023-03-02T04:25:32.746Z,-5.2
2023-03-02T04:26:33.040Z,-5.12
2023-03-02T04:27:32.945Z,-5.12
2023-03-02T04:28:33.104Z,-5.2
2023-03-02T04:29:33.205Z,-5.12
2023-03-02T04:30:33.354Z,-5.04
2023-03-02T04:31:33.458Z,-4.88
2023-03-02T04:32:33.678Z,-5.04
2023-03-02T04:33:33.709Z,-4.88
2023-03-02T04:34:33.866Z,-5.04
2023-03-02T04:35:33.969Z,-5.04
2023-03-02T04:36:34.509Z,-5.12
2023-03-02T04:37:34.270Z,-5.28
2023-03-02T04:38:34.425Z,-4.8
2023-03-02T04:39:34.521Z,-4.4
2023-03-02T04:40:34.704Z,-4.48
2023-03-02T04:41:34.827Z,-5.04
2023-03-02T04:42:34.924Z,-4.88
2023-03-02T04:43:35.079Z,-5.04
2023-03-02T04:44:35.184Z,-5.2
2023-03-02T04:45:35.288Z,-4.8
2023-03-02T04:46:35.744Z,-5.04
2023-03-02T04:47:35.587Z,-5.28
2023-03-02T04:48:35.684Z,-5.6
2023-03-02T04:49:35.836Z,-4.72
2023-03-02T04:50:35.943Z,-5.6
2023-03-02T04:51:36.042Z,-4.88
2023-03-02T04:52:36.195Z,-4.8
2023-03-02T04:53:36.307Z,-4.64
2023-03-02T04:54:36.401Z,-4.8
2023-03-02T04:55:36.504Z,-5.04
2023-03-02T04:56:36.603Z,-5.12
2023-03-02T04:57:36.705Z,-5.12
2023-03-02T04:58:36.814Z,-5.04
2023-03-02T04:59:36.957Z,-5.2
2023-03-02T05:00:37.108Z,-4.88
2023-03-02T05:01:37.260Z,-4.8
2023-03-02T05:02:37.415Z,-5.12
2023-03-02T05:03:37.466Z,-5.04
2023-03-02T05:04:37.596Z,-5.28
2023-03-02T05:05:37.663Z,-5.52
2023-03-02T05:06:37.813Z,-5.68
2023-03-02T05:07:37.938Z,-5.04
2023-03-02T05:08:38.077Z,-5.12
2023-03-02T05:09:38.236Z,-5.04
2023-03-02T05:10:38.328Z,-4.48
2023-03-02T05:11:38.443Z,-4.64
2023-03-02T05:12:38.587Z,-4.8
2023-03-02T05:13:38.685Z,-4.48
2023-03-02T05:14:38.832Z,-4.08
2023-03-02T05:15:38.925Z,-4.48
2023-03-02T05:16:39.118Z,-4.64
2023-03-02T05:17:39.176Z,-4.32
2023-03-02T05:18:39.281Z,-4.08
2023-03-02T05:19:39.378Z,-4.4
2023-03-02T05:20:39.489Z,-3.92
2023-03-02T05:21:39.640Z,-4.16
2023-03-02T05:22:39.731Z,-5.04
2023-03-02T05:23:39.833Z,-5.12
2023-03-02T05:24:39.936Z,-5.04
2023-03-02T05:25:40.090Z,-5.04
2023-03-02T05:26:40.203Z,-4.72
2023-03-02T05:27:40.291Z,-4.8
2023-03-02T05:28:40.446Z,-5.2
2023-03-02T05:29:40.543Z,-5.28
2023-03-02T05:30:40.703Z,-5.12
2023-03-02T05:31:40.931Z,-4.88
2023-03-02T05:32:40.996Z,-4.32
2023-03-02T05:33:41.160Z,-3.84
2023-03-02T05:34:41.255Z,-3.28
2023-03-02T05:35:41.381Z,-3.04
2023-03-02T05:36:41.460Z,-3.04
2023-03-02T05:37:41.558Z,-3.28
2023-03-02T05:38:41.655Z,-3.12
2023-03-02T05:39:41.759Z,-3.68
2023-03-02T05:40:41.857Z,-4.72
2023-03-02T05:41:42.014Z,-4.88
2023-03-02T05:42:42.117Z,-5.04
2023-03-02T05:43:42.215Z,-5.04
2023-03-02T05:44:42.313Z,-5.04
2023-03-02T05:45:42.469Z,-5.12
2023-03-02T05:46:42.650Z,-4.72
2023-03-02T05:47:42.771Z,-4
2023-03-02T05:48:42.867Z,-4.88
2023-03-02T05:49:43.028Z,-5.12
2023-03-02T05:50:43.149Z,-5.2
2023-03-02T05:51:43.228Z,-5.28
2023-03-02T05:52:43.381Z,-4.72
2023-03-02T05:53:43.483Z,-5.2
2023-03-02T05:54:43.576Z,-5.44
2023-03-02T05:55:43.733Z,-5.44
2023-03-02T05:56:43.844Z,-5.44
2023-03-02T05:57:43.982Z,-5.52
2023-03-02T05:58:44.088Z,-5.44
2023-03-02T05:59:44.234Z,-5.44
2023-03-02T06:00:44.339Z,-5.68
2023-03-02T06:01:44.469Z,-5.44
2023-03-02T06:02:44.577Z,-5.04
2023-03-02T06:03:44.691Z,-4.48
2023-03-02T06:04:44.838Z,-5.28
2023-03-02T06:05:44.947Z,-5.84
2023-03-02T06:06:45.097Z,-5.04
2023-03-02T06:07:45.241Z,-4.64
2023-03-02T06:08:45.344Z,-4.8
2023-03-02T06:09:45.504Z,-4.08
2023-03-02T06:10:45.649Z,-4.72
2023-03-02T06:11:45.758Z,-4.72
2023-03-02T06:12:45.868Z,-4.8
2023-03-02T06:13:46.010Z,-4.8
2023-03-02T06:14:46.151Z,-5.04
2023-03-02T06:15:46.262Z,-4.88
2023-03-02T06:16:46.374Z,-5.04
2023-03-02T06:17:46.463Z,-5.44
2023-03-02T06:18:46.562Z,-5.52
2023-03-02T06:19:46.664Z,-5.44
2023-03-02T06:20:46.816Z,-5.52
2023-03-02T06:21:46.912Z,-5.28
2023-03-02T06:22:47.056Z,-4.64
2023-03-02T06:23:47.168Z,-4.64
2023-03-02T06:24:47.272Z,-4.16
2023-03-02T06:25:47.419Z,-4.16
2023-03-02T06:26:47.569Z,-3.92
2023-03-02T06:27:47.679Z,-3.68
2023-03-02T06:28:52.402Z,-4
2023-03-02T06:29:47.922Z,-3.84
2023-03-02T06:30:48.030Z,-3.44
2023-03-02T06:31:48.169Z,-3.28
2023-03-02T06:32:48.248Z,-2.8
2023-03-02T06:33:48.331Z,-2.88
2023-03-02T06:34:48.489Z,-2.72
2023-03-02T06:35:48.748Z,-2.32
2023-03-02T06:36:48.748Z,-2.08
2023-03-02T06:37:48.893Z,-1.84
2023-03-02T06:38:48.989Z,-1.44
2023-03-02T06:39:49.142Z,-1.44
2023-03-02T06:40:49.238Z,-1.04
2023-03-02T06:41:49.396Z,-0.72
2023-03-02T06:42:49.498Z,-0.48
2023-03-02T06:43:49.595Z,-1.2
2023-03-02T06:44:49.751Z,-1.84
2023-03-02T06:45:49.904Z,-2
2023-03-02T06:46:49.959Z,-1.92
2023-03-02T06:47:50.059Z,-1.6
2023-03-02T06:48:50.205Z,-1.68
2023-03-02T06:49:50.311Z,-1.52
2023-03-02T06:50:50.453Z,-1.44
2023-03-02T06:51:50.617Z,-1.44
2023-03-02T06:52:50.760Z,-1.12
2023-03-02T06:53:50.865Z,-0.88
2023-03-02T06:54:50.963Z,-0.48
2023-03-02T06:55:51.114Z,-0.48
2023-03-02T06:56:51.273Z,-0.24
2023-03-02T06:57:51.368Z,-0.08
2023-03-02T06:58:51.469Z,0.4
2023-03-02T06:59:51.579Z,0.24
2023-03-02T07:00:51.709Z,0.4
2023-03-02T07:01:51.818Z,0.8
2023-03-02T07:02:51.925Z,1.12
2023-03-02T07:03:52.061Z,1.44
2023-03-02T07:04:52.125Z,1.68
2023-03-02T07:05:52.282Z,2
2023-03-02T07:06:52.425Z,2
2023-03-02T07:07:52.578Z,1.92
2023-03-02T07:08:52.684Z,2.08
2023-03-02T07:09:52.791Z,1.52
2023-03-02T07:10:52.945Z,2.4
2023-03-02T07:11:53.042Z,2.64
2023-03-02T07:12:53.139Z,1.84
2023-03-02T07:13:53.287Z,2.08
2023-03-02T07:14:53.445Z,1.84
2023-03-02T07:15:53.598Z,2.08
2023-03-02T07:16:53.778Z,2.08
2023-03-02T07:17:53.841Z,1.04
2023-03-02T07:18:53.944Z,1.12
2023-03-02T07:19:54.049Z,1.28
2023-03-02T07:20:54.197Z,1.12
2023-03-02T07:21:54.350Z,0.88
2023-03-02T07:22:54.500Z,1.04
2023-03-02T07:23:54.595Z,1.2
2023-03-02T07:24:54.702Z,1.52
2023-03-02T07:25:54.795Z,1.52
2023-03-02T07:26:54.954Z,1.92
2023-03-02T07:27:55.050Z,2.64
2023-03-02T07:28:55.153Z,2.24
2023-03-02T07:29:55.257Z,2.88
2023-03-02T07:30:55.453Z,3.04
2023-03-02T07:31:55.537Z,3.44
2023-03-02T07:32:55.660Z,3.6
2023-03-02T07:33:55.768Z,4.32
2023-03-02T07:34:55.914Z,4.72
2023-03-02T07:35:56.141Z,5.52
2023-03-02T07:36:56.220Z,6.08
2023-03-02T07:37:56.374Z,6.64
2023-03-02T07:38:56.468Z,7.2
2023-03-02T07:39:57.604Z,7.84
2023-03-02T07:40:56.674Z,6.88
2023-03-02T07:41:56.783Z,7.28
2023-03-02T07:42:56.875Z,7.52
2023-03-02T07:43:57.036Z,8
2023-03-02T07:44:57.182Z,6.4
2023-03-02T07:45:59.492Z,5.2
2023-03-02T07:46:57.416Z,6.24
2023-03-02T07:47:57.484Z,6.48
2023-03-02T07:48:57.585Z,6.32
2023-03-02T07:49:57.699Z,6.88
2023-03-02T07:50:57.799Z,7.52
2023-03-02T07:51:57.908Z,7.68
2023-03-02T07:52:59.862Z,6.88
2023-03-02T07:53:58.162Z,7.52
2023-03-02T07:54:58.268Z,7.2
2023-03-02T07:55:58.348Z,7.84
2023-03-02T07:56:58.450Z,8
2023-03-02T07:57:58.544Z,7.52
2023-03-02T07:58:58.734Z,7.68
2023-03-02T07:59:58.809Z,7.68
2023-03-02T08:00:58.950Z,7.44
2023-03-02T08:01:59.097Z,7.28
2023-03-02T08:02:59.165Z,7.68
2023-03-02T08:03:59.313Z,8
2023-03-02T08:04:59.455Z,8
2023-03-02T08:05:59.557Z,8.08
2023-03-02T08:06:59.661Z,7.6
2023-03-02T08:07:59.767Z,7.84
2023-03-02T08:08:59.915Z,8.08
2023-03-02T08:10:00.020Z,9.84
2023-03-02T08:11:00.119Z,8
2023-03-02T08:12:00.275Z,8.72
2023-03-02T08:13:00.370Z,8.32
2023-03-02T08:14:00.472Z,8
2023-03-02T08:15:01.699Z,7.68
2023-03-02T08:16:00.757Z,7.28
2023-03-02T08:17:00.777Z,7.92
2023-03-02T08:18:00.875Z,7.44
2023-03-02T08:19:00.995Z,6.88
2023-03-02T08:20:01.132Z,7.44
2023-03-02T08:21:01.237Z,7.92
2023-03-02T08:22:01.334Z,7.92
2023-03-02T08:23:01.450Z,7.28
2023-03-02T08:24:01.569Z,7.12
2023-03-02T08:25:01.689Z,7.44
2023-03-02T08:26:01.801Z,7.44
2023-03-02T08:27:01.944Z,7.68
2023-03-02T08:28:02.092Z,8
2023-03-02T08:29:02.196Z,8.639999
2023-03-02T08:30:02.298Z,8.8
2023-03-02T08:31:02.396Z,9.04
2023-03-02T08:32:02.619Z,9.84
2023-03-02T08:33:05.968Z,9.52
2023-03-02T08:34:02.809Z,9.36
2023-03-02T08:35:02.956Z,9.12
2023-03-02T08:36:03.169Z,8.8
2023-03-02T08:37:03.247Z,9.599999
2023-03-02T08:38:03.309Z,8.48
2023-03-02T08:39:03.470Z,8.639999
2023-03-02T08:40:03.563Z,8.88
2023-03-02T08:41:03.670Z,8.639999
2023-03-02T08:42:03.834Z,8.32
2023-03-02T08:43:03.919Z,9.84
2023-03-02T08:44:04.068Z,9.52
2023-03-02T08:45:04.187Z,9.679999
2023-03-02T08:46:04.370Z,8.88
2023-03-02T08:47:04.452Z,9.52
2023-03-02T08:48:04.482Z,10
2023-03-02T08:49:04.624Z,8.8
2023-03-02T08:50:04.780Z,9.84
2023-03-02T08:51:04.888Z,9.28
2023-03-02T08:52:05.023Z,10.8
2023-03-02T08:53:05.130Z,12.48
2023-03-02T08:54:05.228Z,10.719999
2023-03-02T08:55:05.380Z,10.8
2023-03-02T08:56:05.484Z,11.52
2023-03-02T08:57:05.637Z,11.52
2023-03-02T08:58:05.738Z,10.48
2023-03-02T08:59:05.840Z,10.719999
2023-03-02T09:00:05.937Z,11.679999
2023-03-02T09:01:06.119Z,10.719999
2023-03-02T09:02:06.192Z,10.639999
2023-03-02T09:03:06.336Z,11.28
2023-03-02T09:04:06.490Z,11.44
2023-03-02T09:05:06.541Z,11.92
2023-03-02T09:06:06.651Z,11.44
2023-03-02T09:07:06.742Z,10.8
2023-03-02T09:08:06.852Z,11.2
2023-03-02T09:09:06.953Z,11.599999
2023-03-02T09:10:07.107Z,11.679999
2023-03-02T09:11:07.255Z,11.44
2023-03-02T09:12:07.400Z,10.719999
2023-03-02T09:13:08.609Z,10.8
2023-03-02T09:14:07.603Z,10.48
2023-03-02T09:15:07.702Z,9.36
2023-03-02T09:16:07.811Z,11.04
2023-03-02T09:17:07.955Z,11.52
2023-03-02T09:18:08.124Z,10.48
2023-03-02T09:19:08.208Z,9.92
2023-03-02T09:20:08.310Z,10.4
2023-03-02T09:21:08.464Z,11.12
2023-03-02T09:22:08.563Z,10.32
2023-03-02T09:23:08.671Z,9.92
2023-03-02T09:24:08.823Z,9.679999
2023-03-02T09:25:08.978Z,11.12
2023-03-02T09:26:09.070Z,11.84
2023-03-02T09:27:09.182Z,12.799999
2023-03-02T09:28:09.330Z,11.44
2023-03-02T09:29:09.451Z,11.04
2023-03-02T09:30:09.580Z,10.48
2023-03-02T09:31:09.696Z,10.48
2023-03-02T09:32:09.938Z,11.92
2023-03-02T09:33:09.997Z,11.679999
2023-03-02T09:34:10.140Z,12
2023-03-02T09:35:10.313Z,11.599999
2023-03-02T09:36:10.457Z,11.28
2023-03-02T09:37:10.587Z,11.2
2023-03-02T09:38:10.703Z,10.8
2023-03-02T09:39:10.843Z,11.12
2023-03-02T09:40:10.943Z,11.04
2023-03-02T09:41:11.048Z,12.24
2023-03-02T09:42:11.161Z,12.88
2023-03-02T09:43:11.250Z,10.719999
2023-03-02T09:44:11.381Z,10.48
2023-03-02T09:45:11.506Z,11.84
2023-03-02T09:46:11.648Z,11.44
2023-03-02T09:47:11.753Z,10.4
2023-03-02T09:48:11.908Z,10
2023-03-02T09:49:12.060Z,10.08
2023-03-02T09:50:12.239Z,9.679999
2023-03-02T09:51:12.278Z,10
2023-03-02T09:52:12.411Z,10.48
2023-03-02T09:53:12.511Z,11.12
2023-03-02T09:54:12.695Z,11.599999
2023-03-02T09:55:12.780Z,11.92
2023-03-02T09:56:12.918Z,12.08
2023-03-02T09:57:13.025Z,11.84
2023-03-02T09:58:13.115Z,12
2023-03-02T09:59:13.276Z,12.4
2023-03-02T10:00:19.363Z,11.599999
2023-03-02T10:01:16.108Z,12
2023-03-02T10:02:13.577Z,12.48
2023-03-02T10:03:17.290Z,12.24
2023-03-02T10:04:14.083Z,12.32
2023-03-02T10:05:13.938Z,12.48
2023-03-02T10:06:14.035Z,12
2023-03-02T10:07:14.182Z,11.92
2023-03-02T10:08:14.330Z,11.52
2023-03-02T10:09:14.431Z,10.48
2023-03-02T10:10:14.536Z,11.2
2023-03-02T10:11:14.685Z,11.04
2023-03-02T10:12:14.841Z,11.28
2023-03-02T10:13:14.950Z,11.44
2023-03-02T10:14:15.041Z,11.52
2023-03-02T10:15:15.146Z,12.32
2023-03-02T10:16:15.354Z,12.4
2023-03-02T10:17:15.394Z,12
2023-03-02T10:18:15.501Z,11.28
2023-03-02T10:19:15.653Z,11.04
2023-03-02T10:20:15.832Z,11.04
2023-03-02T10:21:15.903Z,10.639999
2023-03-02T10:22:16.055Z,10.639999
2023-03-02T10:23:16.215Z,10.719999
2023-03-02T10:24:16.361Z,10.88
2023-03-02T10:25:16.517Z,11.92
2023-03-02T10:26:16.619Z,11.2
2023-03-02T10:27:16.840Z,12.24
2023-03-02T10:28:16.867Z,12.4
2023-03-02T10:29:17.012Z,12.799999
2023-03-02T10:30:17.120Z,12.24
2023-03-02T10:31:17.265Z,11.28
2023-03-02T10:32:17.387Z,11.92
2023-03-02T10:33:17.480Z,12.4
2023-03-02T10:34:17.622Z,13.12
2023-03-02T10:35:17.734Z,12.719999
2023-03-02T10:36:19.618Z,13.28
2023-03-02T10:37:18.066Z,12.88
2023-03-02T10:38:18.125Z,12.639999
2023-03-02T10:39:18.324Z,13.28
2023-03-02T10:40:18.436Z,13.92
2023-03-02T10:41:18.546Z,14
2023-03-02T10:42:18.703Z,14
2023-03-02T10:43:18.845Z,14.4
2023-03-02T10:44:18.934Z,13.92
2023-03-02T10:45:19.035Z,13.599999
2023-03-02T10:46:19.242Z,11.44
2023-03-02T10:47:20.258Z,11.2
2023-03-02T10:48:19.444Z,13.28
2023-03-02T10:49:20.921Z,13.12
2023-03-02T10:50:19.694Z,12.32
2023-03-02T10:51:19.796Z,12.08
2023-03-02T10:52:19.896Z,13.2
2023-03-02T10:53:20.046Z,12.719999
2023-03-02T10:54:20.146Z,13.28
2023-03-02T10:55:20.303Z,12
2023-03-02T10:56:20.415Z,13.12
2023-03-02T10:57:20.552Z,12.799999
2023-03-02T10:58:20.710Z,12.88
2023-03-02T10:59:20.817Z,13.12
2023-03-02T11:00:20.968Z,12.24
2023-03-02T11:01:21.165Z,13.52
2023-03-02T11:02:21.165Z,13.2
2023-03-02T11:03:21.263Z,12.4
2023-03-02T11:04:21.436Z,12.24
2023-03-02T11:05:21.533Z,12.32
2023-03-02T11:06:21.671Z,12.719999
2023-03-02T11:07:21.819Z,13.84
2023-03-02T11:08:21.971Z,12.24
2023-03-02T11:09:22.119Z,14.24
2023-03-02T11:10:22.370Z,13.599999
2023-03-02T11:11:22.439Z,13.84
2023-03-02T11:12:22.478Z,13.12
2023-03-02T11:13:22.591Z,13.12
2023-03-02T11:14:22.697Z,14.32
2023-03-02T11:15:22.791Z,14
2023-03-02T11:16:22.917Z,12.4
2023-03-02T11:17:22.993Z,12.4
2023-03-02T11:18:23.086Z,12.719999
2023-03-02T11:19:23.238Z,14.639999
2023-03-02T11:20:23.337Z,14.799999
2023-03-02T11:21:23.495Z,13.04
2023-03-02T11:22:23.595Z,12.88
2023-03-02T11:23:23.740Z,12.719999
2023-03-02T11:24:23.848Z,12.48
2023-03-02T11:25:23.946Z,13.84
2023-03-02T11:26:24.043Z,14.88
2023-03-02T11:27:24.151Z,14.88
2023-03-02T11:28:24.248Z,14.639999
2023-03-02T11:29:24.349Z,14.24
2023-03-02T11:30:24.450Z,13.84
2023-03-02T11:31:24.601Z,12.799999
2023-03-02T11:32:24.725Z,12.32
2023-03-02T11:33:24.870Z,12.48
2023-03-02T11:34:24.905Z,12.799999
2023-03-02T11:35:25.038Z,12.799999
2023-03-02T11:36:25.109Z,14.4
2023-03-02T11:37:25.211Z,13.44
2023-03-02T11:38:25.316Z,13.28
2023-03-02T11:39:25.461Z,11.84
2023-03-02T11:40:25.574Z,11.52
2023-03-02T11:41:25.713Z,12.4
2023-03-02T11:42:25.887Z,12.24
2023-03-02T11:43:25.931Z,12.24
2023-03-02T11:44:26.074Z,12.88
2023-03-02T11:45:26.219Z,13.2
2023-03-02T11:46:26.629Z,11.52
2023-03-02T11:47:26.563Z,10.88
2023-03-02T11:48:26.590Z,10.4
2023-03-02T11:49:26.689Z,10.48
2023-03-02T11:50:26.834Z,10
2023-03-02T11:51:26.928Z,9.84
2023-03-02T11:52:27.080Z,11.2
2023-03-02T11:53:27.231Z,11.04
2023-03-02T11:54:27.292Z,11.679999
2023-03-02T11:55:27.437Z,10.8
2023-03-02T11:56:27.596Z,11.84
2023-03-02T11:57:27.691Z,12.48
2023-03-02T11:58:27.846Z,12.24
2023-03-02T11:59:28.810Z,10.48
2023-03-02T12:00:28.093Z,11.599999
2023-03-02T12:01:28.248Z,11.2
2023-03-02T12:02:28.424Z,11.52
2023-03-02T12:03:28.499Z,11.52
2023-03-02T12:04:28.612Z,11.44
2023-03-02T12:05:28.774Z,11.04
2023-03-02T12:06:28.911Z,10.48
2023-03-02T12:07:29.061Z,11.04
2023-03-02T12:08:29.205Z,11.04
2023-03-02T12:09:29.309Z,10
2023-03-02T12:10:29.463Z,11.2
2023-03-02T12:11:29.573Z,11.679999
2023-03-02T12:12:29.667Z,11.92
2023-03-02T12:13:29.822Z,12.08
2023-03-02T12:14:29.971Z,11.52
2023-03-02T12:15:30.120Z,10.24
2023-03-02T12:16:30.362Z,11.04
2023-03-02T12:17:30.330Z,12.24
2023-03-02T12:18:30.424Z,12.719999
2023-03-02T12:19:30.520Z,11.599999
2023-03-02T12:20:30.629Z,12.4
2023-03-02T12:21:30.783Z,12.08
2023-03-02T12:22:30.897Z,13.04
2023-03-02T12:23:30.978Z,13.44
2023-03-02T12:24:31.128Z,12.08
2023-03-02T12:25:31.232Z,10.48
2023-03-02T12:26:31.829Z,11.2
2023-03-02T12:27:31.455Z,10.08
2023-03-02T12:28:31.567Z,10.32
2023-03-02T12:29:31.651Z,10
2023-03-02T12:30:31.739Z,10.08
2023-03-02T12:31:31.867Z,10.24
2023-03-02T12:32:32.028Z,10.24
2023-03-02T12:33:32.090Z,9.84
2023-03-02T12:34:32.360Z,10.4
2023-03-02T12:35:32.388Z,11.12
2023-03-02T12:36:32.866Z,13.04
2023-03-02T12:37:32.552Z,13.12
2023-03-02T12:38:32.733Z,12.799999
2023-03-02T12:39:32.806Z,13.12
2023-03-02T12:40:32.916Z,12.719999
2023-03-02T12:41:33.025Z,11.92
2023-03-02T12:42:33.157Z,11.599999
2023-03-02T12:43:33.318Z,12.719999
2023-03-02T12:44:33.413Z,12.639999
2023-03-02T12:45:33.584Z,12.24
2023-03-02T12:46:33.963Z,12.4
2023-03-02T12:47:33.830Z,10.48
2023-03-02T12:48:33.877Z,10.8
2023-03-02T12:49:34.017Z,11.599999
2023-03-02T12:50:34.173Z,11.2
2023-03-02T12:51:34.425Z,9.679999
2023-03-02T12:52:34.465Z,10
2023-03-02T12:53:34.525Z,10.4
2023-03-02T12:54:34.627Z,10.08
2023-03-02T12:55:34.818Z,10.8
2023-03-02T12:56:35.130Z,10.719999
2023-03-02T12:57:34.927Z,11.28
2023-03-02T12:58:35.048Z,10.719999